Sedalia, IN (46067)

11:48 PM EDT del 27 Maggio 2015 (GMT -0400)
Little Lakes Estates | | Change Station
CLOSE
Current Station
Stazione meteo personale
Location: Frankfort, IN
Altitudine: 850 ft
Stazioni meteo nelle vicinanze

Alt. 850 ft 40.35 °N, 86.49 °W | Updated 12 seconds ago

Sereno
Sereno
65.5 °F
Sembra 65.5 °F
N
1.6
Vento Variabile Vento da Nord
Gusts 2.2 mph

Oggi
Massima -- | Minima -- °F
--% Possibilità di precip.
Ieri
Massima -- | Minima -- °F
Precip. -- in
6:20 AM 9:06 PM
Gobba a ponente, 72% visible
Pressione 30.13 in
Visibilità 10.0 miglia
Nuvole Sereno
Punto di rugiada 62 °F
Umidità 88%
Piovosità 0.00 in
Spessore del manto nevoso Non disponibile.
Raggi UV 0 fuori da 12
Polline 9.00 fuori da 12
Qualità dell'aria Non disponibile.
Flu Activity Sporadic
METAR KGGP 280335Z AUTO 35006KT 10SM CLR 17/12 A3013 RMK AO2

More Conditions Fewer Conditions

Pressione 30.13 in
Visibilità 10.0 miglia
Nuvole Sereno
Punto di rugiada 62 °F
Umidità 88%
Piovosità 0.00 in
Spessore del manto nevoso Non disponibile.
Raggi UV 0 fuori da 12
Polline 9.00 fuori da 12
Qualità dell'aria Non disponibile.
Flu Activity Sporadic
METAR KGGP 280335Z AUTO 35006KT 10SM CLR 17/12 A3013 RMK AO2

More Conditions Fewer Conditions

10-Day Weather Forecast

Almanac

Astronomia

May. 27, 2015 Alba Tramonto
Ora attuale
Crepuscolo civile
Crepuscolo nautico
Crepuscolo astronomico
Luna
Estensione della luce visibile
Lunghezza del giorno
Tomorrow will be .
, % of the Moon is Illuminated

Gli estremi di oggi

State Highs State Lows

Community

WunderPhotos

Upload Photos

1,824,902 foto caricate!

WunderBlogs® & News

Nearby

Qualità dell'aria

  Qualità dell'aria Indice AQ Inquinante
Not available.

Profondità neve

Stazione Profondità Altitudine

Attività sismica

Città  Distanza Mag. Data & Ora
Minimo Magnitudo Mostrato è 2.5.

Temperature delle acque costiere

Località Temperatura

Stations

Stazioni meteo nelle vicinanze

Ubicazione della stazione Temp. Raffreddamento del vento Punto di rugiada Umidità Vento Precip. Alt. Aggiornato Tipo